Terminal Aerodrome Forecast
Issued by NWS

Home | Current Version | Previous Version | Text Only | Print | Product List | Glossary On
Versions: 1 2 3 4 5 6 7 8 9 10 11 12 13 14 15 16 17
000
FTUS42 KMLB 201723
TAFSUA
TAF
KSUA 201723Z 2018/2118 11009KT P6SM VCSH SCT025
      TEMPO 2020/2022 3SM TSRA BKN025CB
     FM210200 16005KT P6SM FEW040 BKN120 OVC250
     FM211400 18007KT P6SM SCT035 BKN250
      AMD NOT SKED=

USA.gov is the U.S. government's official web portal to all federal, state and local government web resources and services.